Terminal Aerodrome Forecast
Issued by NWS Corpus Christi, TX

Home | Current Version | Previous Version | Text Only | Print | Product List | Glossary On
Versions: 1 2 3 4 5 6 7 8 9 10 11 12 13 14 15 16 17 18 19 20 21
000
FTUS44 KCRP 201100
TAFCRP
TAF
KCRP 201127Z 2012/2112 03009KT P6SM FEW025 BKN060
     FM201500 06012KT P6SM VCSH SCT030 BKN120
      TEMPO 2015/2019 4SM SHRA BR BKN025
     FM201900 09011KT P6SM VCSH SCT030 BKN120
      TEMPO 2019/2022 5SM SHRA BR BKN030
     FM202200 08009KT P6SM SCT035 BKN100
     FM210300 05006KT P6SM FEW020 BKN100=

USA.gov is the U.S. government's official web portal to all federal, state and local government web resources and services.